sensor_id;sensor_type;location;lat;lon;timestamp;P1;durP1;ratioP1;P2;durP2;ratioP2
31348;SDS011;17976;48.480;11.946;2022-09-28T12:30:19;4.13;;;1.40;;
31348;SDS011;17976;48.480;11.946;2022-09-28T12:32:47;3.17;;;1.23;;
31348;SDS011;17976;48.480;11.946;2022-09-28T12:35:14;3.63;;;1.40;;
31348;SDS011;17976;48.480;11.946;2022-09-28T12:40:30;2.75;;;1.48;;
31348;SDS011;17976;48.480;11.946;2022-09-28T12:45:52;3.42;;;1.10;;
31348;SDS011;17976;48.480;11.946;2022-09-28T12:56:03;3.13;;;1.40;;
31348;SDS011;17976;48.480;11.946;2022-09-28T13:01:27;2.72;;;1.20;;
31348;SDS011;17976;48.480;11.946;2022-09-28T13:16:34;3.33;;;1.23;;
31348;SDS011;17976;48.480;11.946;2022-09-28T13:19:23;2.00;;;1.25;;
31348;SDS011;17976;48.480;11.946;2022-09-28T13:24:36;5.68;;;1.63;;
31348;SDS011;17976;48.480;11.946;2022-09-28T13:27:08;1.48;;;0.90;;
31348;SDS011;17976;48.480;11.946;2022-09-28T13:29:35;3.97;;;1.40;;
31348;SDS011;17976;48.480;11.946;2022-09-28T13:32:03;2.70;;;1.55;;
31348;SDS011;17976;48.480;11.946;2022-09-28T13:34:31;2.55;;;1.40;;
31348;SDS011;17976;48.480;11.946;2022-09-28T13:42:00;4.10;;;1.30;;
31348;SDS011;17976;48.480;11.946;2022-09-28T13:44:29;4.18;;;1.80;;
31348;SDS011;17976;48.480;11.946;2022-09-28T13:52:27;5.53;;;1.48;;
31348;SDS011;17976;48.480;11.946;2022-09-28T14:02:48;9.02;;;2.53;;
31348;SDS011;17976;48.480;11.946;2022-09-28T14:10:50;3.97;;;1.40;;
31348;SDS011;17976;48.480;11.946;2022-09-28T14:29:24;3.88;;;1.98;;
31348;SDS011;17976;48.480;11.946;2022-09-28T14:31:52;3.40;;;1.55;;
31348;SDS011;17976;48.480;11.946;2022-09-28T14:34:33;7.07;;;2.83;;
31348;SDS011;17976;48.480;11.946;2022-09-28T14:37:00;3.92;;;1.75;;
31348;SDS011;17976;48.480;11.946;2022-09-28T14:39:46;5.68;;;2.88;;
31348;SDS011;17976;48.480;11.946;2022-09-28T14:42:31;5.60;;;1.70;;
31348;SDS011;17976;48.480;11.946;2022-09-28T14:47:33;3.85;;;1.90;;
31348;SDS011;17976;48.480;11.946;2022-09-28T14:50:00;10.98;;;3.97;;
31348;SDS011;17976;48.480;11.946;2022-09-28T14:52:41;8.85;;;3.25;;
31348;SDS011;17976;48.480;11.946;2022-09-28T14:55:10;7.60;;;2.53;;
31348;SDS011;17976;48.480;11.946;2022-09-28T14:57:37;2.50;;;1.73;;
31348;SDS011;17976;48.480;11.946;2022-09-28T15:00:15;7.55;;;1.88;;
31348;SDS011;17976;48.480;11.946;2022-09-28T15:02:45;3.50;;;1.60;;
31348;SDS011;17976;48.480;11.946;2022-09-28T15:05:16;2.75;;;1.77;;
31348;SDS011;17976;48.480;11.946;2022-09-28T15:07:47;2.97;;;1.35;;
31348;SDS011;17976;48.480;11.946;2022-09-28T15:10:22;6.57;;;1.60;;
31348;SDS011;17976;48.480;11.946;2022-09-28T15:12:49;5.03;;;1.58;;
31348;SDS011;17976;48.480;11.946;2022-09-28T15:15:24;7.32;;;2.75;;
31348;SDS011;17976;48.480;11.946;2022-09-28T15:17:54;6.00;;;2.85;;
31348;SDS011;17976;48.480;11.946;2022-09-28T15:20:26;2.58;;;1.80;;
31348;SDS011;17976;48.480;11.946;2022-09-28T15:22:55;2.88;;;1.70;;
31348;SDS011;17976;48.480;11.946;2022-09-28T15:25:22;2.70;;;1.65;;
31348;SDS011;17976;48.480;11.946;2022-09-28T15:28:09;9.75;;;2.85;;
31348;SDS011;17976;48.480;11.946;2022-09-28T15:30:37;6.10;;;2.15;;
31348;SDS011;17976;48.480;11.946;2022-09-28T15:33:03;4.35;;;2.38;;
31348;SDS011;17976;48.480;11.946;2022-09-28T15:35:52;2.90;;;1.73;;
31348;SDS011;17976;48.480;11.946;2022-09-28T15:38:21;6.38;;;2.90;;
31348;SDS011;17976;48.480;11.946;2022-09-28T15:40:47;3.83;;;2.20;;
31348;SDS011;17976;48.480;11.946;2022-09-28T15:43:23;9.73;;;3.00;;
31348;SDS011;17976;48.480;11.946;2022-09-28T15:48:30;5.43;;;2.65;;
31348;SDS011;17976;48.480;11.946;2022-09-28T15:51:08;4.65;;;2.60;;
31348;SDS011;17976;48.480;11.946;2022-09-28T15:53:42;6.65;;;1.70;;
31348;SDS011;17976;48.480;11.946;2022-09-28T15:56:11;5.35;;;2.33;;
31348;SDS011;17976;48.480;11.946;2022-09-28T15:58:37;3.00;;;2.10;;
31348;SDS011;17976;48.480;11.946;2022-09-28T16:01:17;4.75;;;1.80;;
31348;SDS011;17976;48.480;11.946;2022-09-28T16:03:45;4.75;;;2.22;;
31348;SDS011;17976;48.480;11.946;2022-09-28T16:06:10;4.47;;;1.80;;
31348;SDS011;17976;48.480;11.946;2022-09-28T16:08:38;5.95;;;2.53;;
31348;SDS011;17976;48.480;11.946;2022-09-28T16:11:22;5.90;;;2.33;;
31348;SDS011;17976;48.480;11.946;2022-09-28T16:16:17;4.45;;;2.25;;
31348;SDS011;17976;48.480;11.946;2022-09-28T16:18:46;6.40;;;2.40;;
31348;SDS011;17976;48.480;11.946;2022-09-28T16:21:22;4.65;;;2.08;;
31348;SDS011;17976;48.480;11.946;2022-09-28T16:23:50;4.28;;;2.15;;
31348;SDS011;17976;48.480;11.946;2022-09-28T16:26:24;5.28;;;1.88;;
31348;SDS011;17976;48.480;11.946;2022-09-28T16:28:58;3.13;;;2.00;;
31348;SDS011;17976;48.480;11.946;2022-09-28T16:31:27;5.55;;;2.70;;
31348;SDS011;17976;48.480;11.946;2022-09-28T16:33:54;4.85;;;1.73;;
31348;SDS011;17976;48.480;11.946;2022-09-28T16:36:22;5.60;;;3.13;;
31348;SDS011;17976;48.480;11.946;2022-09-28T16:38:51;7.07;;;3.00;;
31348;SDS011;17976;48.480;11.946;2022-09-28T16:41:19;5.93;;;2.25;;
31348;SDS011;17976;48.480;11.946;2022-09-28T16:43:46;4.18;;;2.60;;
31348;SDS011;17976;48.480;11.946;2022-09-28T16:46:13;4.60;;;2.35;;
31348;SDS011;17976;48.480;11.946;2022-09-28T16:48:42;3.30;;;2.20;;
31348;SDS011;17976;48.480;11.946;2022-09-28T16:51:15;4.90;;;2.20;;
31348;SDS011;17976;48.480;11.946;2022-09-28T16:53:41;5.22;;;2.22;;
31348;SDS011;17976;48.480;11.946;2022-09-28T16:56:26;8.38;;;2.63;;
31348;SDS011;17976;48.480;11.946;2022-09-28T16:58:53;4.65;;;3.10;;
31348;SDS011;17976;48.480;11.946;2022-09-28T17:01:19;12.25;;;3.38;;
31348;SDS011;17976;48.480;11.946;2022-09-28T17:03:46;6.70;;;3.15;;
31348;SDS011;17976;48.480;11.946;2022-09-28T17:06:14;5.72;;;3.03;;
31348;SDS011;17976;48.480;11.946;2022-09-28T17:08:40;6.72;;;3.13;;
31348;SDS011;17976;48.480;11.946;2022-09-28T17:11:08;5.28;;;3.20;;
31348;SDS011;17976;48.480;11.946;2022-09-28T17:13:37;9.15;;;3.13;;
31348;SDS011;17976;48.480;11.946;2022-09-28T17:16:03;5.78;;;3.17;;
31348;SDS011;17976;48.480;11.946;2022-09-28T17:18:32;10.13;;;3.53;;
31348;SDS011;17976;48.480;11.946;2022-09-28T17:21:02;8.05;;;3.28;;
31348;SDS011;17976;48.480;11.946;2022-09-28T17:23:28;10.90;;;3.70;;
31348;SDS011;17976;48.480;11.946;2022-09-28T17:25:54;7.03;;;4.45;;
31348;SDS011;17976;48.480;11.946;2022-09-28T17:28:21;7.28;;;4.00;;
31348;SDS011;17976;48.480;11.946;2022-09-28T17:30:48;4.93;;;3.22;;
31348;SDS011;17976;48.480;11.946;2022-09-28T17:33:14;7.05;;;3.72;;
31348;SDS011;17976;48.480;11.946;2022-09-28T17:35:41;5.50;;;3.33;;
31348;SDS011;17976;48.480;11.946;2022-09-28T17:38:08;7.57;;;3.85;;
31348;SDS011;17976;48.480;11.946;2022-09-28T17:40:38;7.80;;;3.67;;
31348;SDS011;17976;48.480;11.946;2022-09-28T17:43:04;9.95;;;4.18;;
31348;SDS011;17976;48.480;11.946;2022-09-28T17:45:31;8.55;;;4.00;;
31348;SDS011;17976;48.480;11.946;2022-09-28T17:47:57;5.63;;;3.50;;
31348;SDS011;17976;48.480;11.946;2022-09-28T17:50:26;5.55;;;3.67;;
31348;SDS011;17976;48.480;11.946;2022-09-28T17:52:53;7.93;;;3.88;;
31348;SDS011;17976;48.480;11.946;2022-09-28T17:55:23;7.20;;;4.10;;
31348;SDS011;17976;48.480;11.946;2022-09-28T17:57:54;6.10;;;3.05;;
31348;SDS011;17976;48.480;11.946;2022-09-28T18:00:21;6.88;;;3.78;;
31348;SDS011;17976;48.480;11.946;2022-09-28T18:02:51;6.00;;;3.42;;
31348;SDS011;17976;48.480;11.946;2022-09-28T18:05:17;6.32;;;3.65;;
31348;SDS011;17976;48.480;11.946;2022-09-28T18:07:43;8.10;;;4.10;;
31348;SDS011;17976;48.480;11.946;2022-09-28T18:10:13;10.25;;;4.57;;
31348;SDS011;17976;48.480;11.946;2022-09-28T18:12:40;6.38;;;4.15;;
31348;SDS011;17976;48.480;11.946;2022-09-28T18:15:07;7.75;;;3.83;;
31348;SDS011;17976;48.480;11.946;2022-09-28T18:17:34;7.30;;;3.13;;
31348;SDS011;17976;48.480;11.946;2022-09-28T18:20:00;6.93;;;3.13;;
31348;SDS011;17976;48.480;11.946;2022-09-28T18:22:26;7.70;;;4.10;;
31348;SDS011;17976;48.480;11.946;2022-09-28T18:24:52;11.05;;;4.05;;
31348;SDS011;17976;48.480;11.946;2022-09-28T18:27:18;6.45;;;4.10;;
31348;SDS011;17976;48.480;11.946;2022-09-28T18:29:44;8.13;;;3.83;;
31348;SDS011;17976;48.480;11.946;2022-09-28T18:32:10;6.95;;;4.15;;
31348;SDS011;17976;48.480;11.946;2022-09-28T18:34:36;5.50;;;3.30;;
31348;SDS011;17976;48.480;11.946;2022-09-28T18:37:03;6.60;;;3.28;;
31348;SDS011;17976;48.480;11.946;2022-09-28T18:39:29;9.30;;;3.30;;
31348;SDS011;17976;48.480;11.946;2022-09-28T18:41:55;7.95;;;4.18;;
31348;SDS011;17976;48.480;11.946;2022-09-28T18:44:21;7.65;;;3.90;;
31348;SDS011;17976;48.480;11.946;2022-09-28T18:46:47;6.80;;;4.60;;
31348;SDS011;17976;48.480;11.946;2022-09-28T18:49:15;9.23;;;4.15;;
31348;SDS011;17976;48.480;11.946;2022-09-28T18:51:41;9.75;;;4.93;;
31348;SDS011;17976;48.480;11.946;2022-09-28T18:54:07;11.60;;;4.63;;
31348;SDS011;17976;48.480;11.946;2022-09-28T18:56:33;7.45;;;3.92;;
31348;SDS011;17976;48.480;11.946;2022-09-28T18:59:03;6.50;;;4.18;;
31348;SDS011;17976;48.480;11.946;2022-09-28T19:01:30;10.35;;;3.97;;
31348;SDS011;17976;48.480;11.946;2022-09-28T19:04:00;7.30;;;3.80;;
31348;SDS011;17976;48.480;11.946;2022-09-28T19:06:27;11.70;;;4.25;;
31348;SDS011;17976;48.480;11.946;2022-09-28T19:08:54;7.50;;;4.38;;
31348;SDS011;17976;48.480;11.946;2022-09-28T19:11:20;9.68;;;3.83;;
31348;SDS011;17976;48.480;11.946;2022-09-28T19:13:46;7.20;;;3.85;;
31348;SDS011;17976;48.480;11.946;2022-09-28T19:16:14;7.50;;;3.78;;
31348;SDS011;17976;48.480;11.946;2022-09-28T19:18:40;10.73;;;3.88;;
31348;SDS011;17976;48.480;11.946;2022-09-28T19:21:08;6.32;;;3.72;;
31348;SDS011;17976;48.480;11.946;2022-09-28T19:23:34;5.85;;;4.25;;
31348;SDS011;17976;48.480;11.946;2022-09-28T19:26:02;8.27;;;4.30;;
31348;SDS011;17976;48.480;11.946;2022-09-28T19:28:28;7.10;;;4.28;;
31348;SDS011;17976;48.480;11.946;2022-09-28T19:30:58;5.72;;;3.72;;
31348;SDS011;17976;48.480;11.946;2022-09-28T19:33:24;5.28;;;3.20;;
31348;SDS011;17976;48.480;11.946;2022-09-28T19:36:00;9.93;;;3.60;;
31348;SDS011;17976;48.480;11.946;2022-09-28T19:38:27;5.45;;;3.28;;
31348;SDS011;17976;48.480;11.946;2022-09-28T19:40:53;4.80;;;2.92;;
31348;SDS011;17976;48.480;11.946;2022-09-28T19:43:19;4.80;;;3.05;;
31348;SDS011;17976;48.480;11.946;2022-09-28T19:45:48;7.10;;;3.65;;
31348;SDS011;17976;48.480;11.946;2022-09-28T19:48:19;12.35;;;3.42;;
31348;SDS011;17976;48.480;11.946;2022-09-28T19:51:04;9.90;;;3.30;;
31348;SDS011;17976;48.480;11.946;2022-09-28T19:53:31;6.30;;;3.28;;
31348;SDS011;17976;48.480;11.946;2022-09-28T19:56:00;8.32;;;3.00;;
31348;SDS011;17976;48.480;11.946;2022-09-28T19:58:30;7.70;;;3.10;;
